createdAt,value
2023-03-22T00:01:01.462Z,35.76
2023-03-22T00:05:01.693Z,35.81
2023-03-22T00:09:01.912Z,35.83
2023-03-22T00:13:01.908Z,35.79
2023-03-22T00:17:01.859Z,35.75
2023-03-22T00:21:01.802Z,35.72
2023-03-22T00:25:01.758Z,35.75
2023-03-22T00:29:01.718Z,35.80
2023-03-22T00:33:01.673Z,35.81
2023-03-22T00:37:01.657Z,35.84
2023-03-22T00:41:01.657Z,35.86
2023-03-22T00:45:01.566Z,35.92
2023-03-22T00:49:01.566Z,35.93
2023-03-22T00:53:01.591Z,35.96
2023-03-22T00:57:01.690Z,35.97
2023-03-22T01:01:01.799Z,35.99
2023-03-22T01:05:01.721Z,36.04
2023-03-22T01:09:01.830Z,36.07
2023-03-22T01:13:01.929Z,36.09
2023-03-22T01:17:01.935Z,36.11
2023-03-22T01:21:01.946Z,36.17
2023-03-22T01:25:01.929Z,36.18
2023-03-22T01:29:01.914Z,36.18
2023-03-22T01:33:01.950Z,36.19
2023-03-22T01:37:01.912Z,36.19
2023-03-22T01:41:01.912Z,36.13
2023-03-22T01:45:01.918Z,36.10
2023-03-22T01:49:02.008Z,36.03
2023-03-22T01:53:01.942Z,35.96
2023-03-22T01:57:01.972Z,35.98
2023-03-22T02:01:02.040Z,35.95
2023-03-22T02:05:02.073Z,35.96
2023-03-22T02:09:02.209Z,35.94
2023-03-22T02:13:02.238Z,35.95
2023-03-22T02:17:02.295Z,35.92
2023-03-22T02:21:02.651Z,35.92
2023-03-22T02:25:02.496Z,35.80
2023-03-22T02:29:02.603Z,35.75
2023-03-22T02:33:02.733Z,35.76
2023-03-22T02:37:02.805Z,35.73
2023-03-22T02:41:02.942Z,35.75
2023-03-22T02:45:03.062Z,35.77
2023-03-22T02:49:03.208Z,35.77
2023-03-22T02:53:03.318Z,35.78
2023-03-22T02:57:03.419Z,35.83
2023-03-22T03:01:03.610Z,35.87
2023-03-22T03:05:03.709Z,35.87
2023-03-22T03:09:03.818Z,35.77
2023-03-22T03:13:03.963Z,35.68
2023-03-22T03:17:04.078Z,35.66
2023-03-22T03:21:04.258Z,35.72
2023-03-22T03:25:04.389Z,35.73
2023-03-22T03:29:04.515Z,35.81
2023-03-22T03:33:04.706Z,35.84
2023-03-22T03:37:04.791Z,35.86
2023-03-22T03:41:04.977Z,35.87
2023-03-22T03:45:05.113Z,35.89
2023-03-22T03:49:05.260Z,35.93
2023-03-22T03:53:05.419Z,35.95
2023-03-22T03:57:05.570Z,36.00
2023-03-22T04:01:05.753Z,36.00
2023-03-22T04:05:06.124Z,36.00
2023-03-22T04:09:06.164Z,36.04
2023-03-22T04:13:06.367Z,36.02
2023-03-22T04:17:06.577Z,36.02
2023-03-22T04:21:06.526Z,36.06
2023-03-22T04:25:06.535Z,36.03
2023-03-22T04:29:06.459Z,36.00
2023-03-22T04:33:06.448Z,36.04
2023-03-22T04:37:06.410Z,36.03
2023-03-22T04:41:06.376Z,36.05
2023-03-22T04:45:06.346Z,36.06
2023-03-22T04:49:06.314Z,36.08
2023-03-22T04:53:06.255Z,36.18
2023-03-22T04:57:06.303Z,36.18
2023-03-22T05:01:06.274Z,36.18
2023-03-22T05:05:06.255Z,36.20
2023-03-22T05:09:06.179Z,36.18
2023-03-22T05:13:06.182Z,36.19
2023-03-22T05:17:06.135Z,36.13
2023-03-22T05:21:06.313Z,36.08
2023-03-22T05:25:06.063Z,36.08
2023-03-22T05:29:06.014Z,36.11
2023-03-22T05:33:05.956Z,36.16
2023-03-22T05:37:05.939Z,36.18
2023-03-22T05:41:05.883Z,36.18
2023-03-22T05:45:05.894Z,36.15
2023-03-22T05:49:05.831Z,36.14
2023-03-22T05:53:05.822Z,36.46
2023-03-22T05:57:05.795Z,36.92
2023-03-22T06:01:05.753Z,36.99
2023-03-22T06:05:05.733Z,37.08
2023-03-22T06:09:16.484Z,37.08
2023-03-22T06:13:06.722Z,37.10
2023-03-22T06:17:05.622Z,37.11
2023-03-22T06:21:05.808Z,37.11
2023-03-22T06:25:05.812Z,37.08
2023-03-22T06:29:05.771Z,37.13
2023-03-22T06:33:05.714Z,37.16
2023-03-22T06:37:05.670Z,37.18
2023-03-22T06:41:05.594Z,37.49
2023-03-22T06:45:05.823Z,38.73
2023-03-22T06:49:05.860Z,41.07
2023-03-22T06:53:05.528Z,40.83
2023-03-22T06:57:05.487Z,42.67
2023-03-22T07:01:05.884Z,43.56
2023-03-22T07:05:05.410Z,44.16
2023-03-22T07:09:05.829Z,45.00
2023-03-22T07:13:05.324Z,44.99
2023-03-22T07:17:05.364Z,45.26
2023-03-22T07:21:05.404Z,45.42
2023-03-22T07:25:05.477Z,45.58
2023-03-22T07:29:05.860Z,45.75
2023-03-22T07:33:05.658Z,45.76
2023-03-22T07:37:05.829Z,45.69
2023-03-22T07:41:05.920Z,45.55
2023-03-22T07:45:05.890Z,45.72
2023-03-22T07:49:05.875Z,43.40
2023-03-22T07:53:05.774Z,43.51
2023-03-22T07:57:05.771Z,44.89
2023-03-22T08:01:05.918Z,45.60
2023-03-22T08:05:06.395Z,46.36
2023-03-22T08:09:06.090Z,46.49
2023-03-22T08:13:06.058Z,47.11
2023-03-22T08:17:06.339Z,47.75
2023-03-22T08:21:05.993Z,48.32
2023-03-22T08:25:05.941Z,47.93
2023-03-22T08:29:05.884Z,48.06
2023-03-22T08:33:05.889Z,48.56
2023-03-22T08:37:05.919Z,49.30
2023-03-22T08:41:05.864Z,49.68
2023-03-22T08:45:05.761Z,49.16
2023-03-22T08:49:06.380Z,47.85
2023-03-22T08:53:05.690Z,47.06
2023-03-22T08:57:05.887Z,47.01
2023-03-22T09:01:05.766Z,46.70
2023-03-22T09:05:05.779Z,46.63
2023-03-22T09:09:05.748Z,46.52
2023-03-22T09:13:05.866Z,46.75
2023-03-22T09:17:05.658Z,46.82
2023-03-22T09:21:05.656Z,46.62
2023-03-22T09:25:05.904Z,47.19
2023-03-22T09:29:05.903Z,47.37
2023-03-22T09:33:05.525Z,47.32
2023-03-22T09:37:05.900Z,47.24
2023-03-22T09:41:05.439Z,47.41
2023-03-22T09:45:05.891Z,47.86
2023-03-22T09:49:05.904Z,47.97
2023-03-22T09:53:05.680Z,48.17
2023-03-22T09:57:05.816Z,48.27
2023-03-22T10:01:06.149Z,47.91
2023-03-22T10:05:06.134Z,48.07
2023-03-22T10:09:06.414Z,48.03
2023-03-22T10:13:06.460Z,47.77
2023-03-22T10:17:06.507Z,48.57
2023-03-22T10:21:06.893Z,48.50
2023-03-22T10:25:06.743Z,48.49
2023-03-22T10:29:06.838Z,48.21
2023-03-22T10:33:06.921Z,48.97
2023-03-22T10:37:07.417Z,49.73
2023-03-22T10:41:07.405Z,50.95
2023-03-22T10:45:07.390Z,48.61
2023-03-22T10:49:07.005Z,47.27
2023-03-22T10:53:07.050Z,47.11
2023-03-22T10:57:07.444Z,46.47
2023-03-22T11:01:07.381Z,46.24
2023-03-22T11:05:07.289Z,46.34
2023-03-22T11:09:07.323Z,46.35
2023-03-22T11:13:07.451Z,46.09
2023-03-22T11:17:07.501Z,45.74
2023-03-22T11:21:07.572Z,46.24
2023-03-22T11:25:07.660Z,46.29
2023-03-22T11:29:07.737Z,45.84
2023-03-22T11:33:07.870Z,45.69
2023-03-22T11:37:07.968Z,46.10
2023-03-22T11:41:07.931Z,45.61
2023-03-22T11:45:07.964Z,44.84
2023-03-22T11:49:08.466Z,45.25
2023-03-22T11:53:08.083Z,45.53
2023-03-22T11:57:08.144Z,44.96
2023-03-22T12:01:08.156Z,45.25
2023-03-22T12:05:08.316Z,45.74
2023-03-22T12:09:08.278Z,45.48
2023-03-22T12:13:08.319Z,44.92
2023-03-22T12:17:08.319Z,44.48
2023-03-22T12:21:08.361Z,44.03
2023-03-22T12:25:08.361Z,44.36
2023-03-22T12:29:08.538Z,44.45
2023-03-22T12:33:08.512Z,44.30
2023-03-22T12:37:08.960Z,45.13
2023-03-22T12:41:08.469Z,45.65
2023-03-22T12:45:08.488Z,45.61
2023-03-22T12:49:09.002Z,45.53
2023-03-22T12:53:08.556Z,46.39
2023-03-22T12:57:08.540Z,46.38
2023-03-22T13:01:08.560Z,46.32
2023-03-22T13:05:08.508Z,46.69
2023-03-22T13:09:08.482Z,47.31
2023-03-22T13:13:08.569Z,46.92
2023-03-22T13:17:08.687Z,46.16
2023-03-22T13:21:08.631Z,46.45
2023-03-22T13:25:08.683Z,45.67
2023-03-22T13:29:08.618Z,45.59
2023-03-22T13:33:09.066Z,45.26
2023-03-22T13:37:08.741Z,45.22
2023-03-22T13:41:08.903Z,45.15
2023-03-22T13:45:09.008Z,45.14
2023-03-22T13:49:09.306Z,45.96
2023-03-22T13:53:09.449Z,46.34
2023-03-22T13:57:09.552Z,45.79
2023-03-22T14:01:09.821Z,46.41
2023-03-22T14:05:09.844Z,45.84
2023-03-22T14:09:09.870Z,45.10
2023-03-22T14:13:09.917Z,44.72
2023-03-22T14:17:09.864Z,44.66
2023-03-22T14:21:09.872Z,44.34
2023-03-22T14:46:00.009Z,42.57
2023-03-22T14:49:59.952Z,42.92
2023-03-22T14:53:59.955Z,42.04
2023-03-22T14:57:59.889Z,43.19
2023-03-22T15:01:59.868Z,42.90
2023-03-22T15:05:59.784Z,42.93
2023-03-22T15:09:59.764Z,42.80
2023-03-22T15:13:59.708Z,42.40
2023-03-22T15:17:59.679Z,42.70
2023-03-22T15:21:59.657Z,43.27
2023-03-22T15:25:59.608Z,43.43
2023-03-22T15:29:59.570Z,43.45
2023-03-22T15:33:59.531Z,44.00
2023-03-22T15:37:59.494Z,44.23
2023-03-22T15:41:59.485Z,44.28
2023-03-22T15:45:59.463Z,44.02
2023-03-22T15:49:59.400Z,44.04
2023-03-22T15:53:59.340Z,44.47
2023-03-22T15:57:59.325Z,44.73
2023-03-22T16:01:59.292Z,44.94
2023-03-22T16:05:59.250Z,45.15
2023-03-22T16:09:59.208Z,45.14
2023-03-22T16:13:59.280Z,44.21
2023-03-22T16:17:59.401Z,44.60
2023-03-22T16:21:59.489Z,44.62
2023-03-22T16:25:59.590Z,44.56
2023-03-22T16:29:59.788Z,44.00
2023-03-22T16:33:59.859Z,43.57
2023-03-22T16:37:59.948Z,43.29
2023-03-22T16:42:00.121Z,43.80
2023-03-22T16:46:00.242Z,43.17
2023-03-22T16:50:00.387Z,43.52
2023-03-22T16:54:00.452Z,43.61
2023-03-22T16:58:00.617Z,44.01
2023-03-22T17:02:00.745Z,44.05
2023-03-22T17:06:00.895Z,44.44
2023-03-22T17:10:01.028Z,44.12
2023-03-22T17:14:01.204Z,44.62
2023-03-22T17:18:01.385Z,43.64
2023-03-22T17:22:01.579Z,43.66
2023-03-22T17:26:01.731Z,44.72
2023-03-22T17:30:01.901Z,44.58
2023-03-22T17:34:02.774Z,43.96
2023-03-22T17:38:02.940Z,43.88
2023-03-22T17:42:02.424Z,43.85
2023-03-22T17:46:49.075Z,43.97
2023-03-22T17:50:03.513Z,43.44
2023-03-22T17:54:35.471Z,43.10
2023-03-22T18:02:02.433Z,43.39
2023-03-22T18:06:02.339Z,40.33
2023-03-22T18:10:02.358Z,40.45
2023-03-22T18:14:13.812Z,38.60
2023-03-22T18:18:03.249Z,36.78
2023-03-22T18:22:02.259Z,36.40
2023-03-22T18:26:02.255Z,35.42
2023-03-22T18:30:02.208Z,34.55
2023-03-22T18:34:02.117Z,34.80
2023-03-22T18:38:02.618Z,34.34
2023-03-22T18:42:08.553Z,34.09
2023-03-22T18:46:17.095Z,33.64
2023-03-22T18:50:02.992Z,33.58
2023-03-22T18:54:02.773Z,33.44
2023-03-22T18:58:01.938Z,33.28
2023-03-22T19:02:09.876Z,33.28
2023-03-22T19:06:02.835Z,33.14
2023-03-22T19:10:01.825Z,33.20
2023-03-22T19:14:49.551Z,33.13
2023-03-22T19:18:02.770Z,33.07
2023-03-22T19:22:01.689Z,33.00
2023-03-22T19:26:01.689Z,32.91
2023-03-22T19:30:01.697Z,32.84
2023-03-22T19:34:01.628Z,32.76
2023-03-22T19:38:01.563Z,32.78
2023-03-22T19:42:06.510Z,32.72
2023-03-22T19:46:02.614Z,32.75
2023-03-22T19:50:01.563Z,32.79
2023-03-22T19:58:02.559Z,32.76
2023-03-22T20:02:01.446Z,32.77
2023-03-22T20:06:01.980Z,32.74
2023-03-22T20:10:01.577Z,32.68
2023-03-22T20:14:01.709Z,32.56
2023-03-22T20:18:01.932Z,32.47
2023-03-22T20:22:02.094Z,32.61
2023-03-22T20:26:02.304Z,32.75
2023-03-22T20:30:02.541Z,32.87
2023-03-22T20:34:02.483Z,32.97
2023-03-22T20:38:02.516Z,33.09
2023-03-22T20:42:02.467Z,33.14
2023-03-22T20:46:02.402Z,33.19
2023-03-22T20:50:02.371Z,33.21
2023-03-22T20:54:02.350Z,33.23
2023-03-22T20:58:02.316Z,33.25
2023-03-22T21:02:02.271Z,33.22
2023-03-22T21:06:02.214Z,33.26
2023-03-22T21:10:02.187Z,33.39
2023-03-22T21:14:02.165Z,33.46
2023-03-22T21:18:02.113Z,33.50
2023-03-22T21:22:05.111Z,33.59
2023-03-22T21:26:02.030Z,33.61
2023-03-22T21:30:01.995Z,33.62
2023-03-22T21:34:01.966Z,33.61
2023-03-22T21:38:01.934Z,33.61
2023-03-22T21:42:01.915Z,33.57
2023-03-22T21:46:01.865Z,33.56
2023-03-22T21:50:01.863Z,33.69
2023-03-22T21:54:01.764Z,33.81
2023-03-22T21:58:01.757Z,33.85
2023-03-22T22:02:01.723Z,33.80
2023-03-22T22:06:01.692Z,33.91
2023-03-22T22:10:01.679Z,34.01
2023-03-22T22:14:01.623Z,33.97
2023-03-22T22:18:01.600Z,33.81
2023-03-22T22:22:01.561Z,33.63
2023-03-22T22:26:01.507Z,33.55
2023-03-22T22:30:01.548Z,33.76
2023-03-22T22:34:01.412Z,33.92
2023-03-22T22:38:01.409Z,34.02
2023-03-22T22:42:01.375Z,33.94
2023-03-22T22:46:01.448Z,33.78
2023-03-22T22:50:01.614Z,33.77
2023-03-22T22:54:01.779Z,33.61
2023-03-22T22:58:02.000Z,33.72
2023-03-22T23:02:02.214Z,33.92
2023-03-22T23:06:02.449Z,34.10
2023-03-22T23:10:02.396Z,34.19
2023-03-22T23:14:02.376Z,34.27
2023-03-22T23:22:02.306Z,34.47
2023-03-22T23:50:02.015Z,34.67
